sensor_id;sensor_type;location;lat;lon;timestamp;pressure;altitude;pressure_sealevel;temperature;humidity
12182;BME280;6154;51.550;12.138;2023-03-14T00:01:14;98221.75;;;17.36;57.69
12182;BME280;6154;51.550;12.138;2023-03-14T00:03:43;98221.94;;;17.34;58.08
12182;BME280;6154;51.550;12.138;2023-03-14T00:06:12;98224.94;;;17.31;57.84
12182;BME280;6154;51.550;12.138;2023-03-14T00:08:40;98224.69;;;17.26;58.01
12182;BME280;6154;51.550;12.138;2023-03-14T00:11:10;98218.19;;;17.20;58.28
12182;BME280;6154;51.550;12.138;2023-03-14T00:13:39;98208.53;;;17.19;58.36
12182;BME280;6154;51.550;12.138;2023-03-14T00:16:09;98207.69;;;17.19;58.14
12182;BME280;6154;51.550;12.138;2023-03-14T00:18:39;98223.28;;;17.15;58.28
12182;BME280;6154;51.550;12.138;2023-03-14T00:21:09;98212.41;;;17.17;58.23
12182;BME280;6154;51.550;12.138;2023-03-14T00:23:39;98217.09;;;17.15;58.24
12182;BME280;6154;51.550;12.138;2023-03-14T00:26:09;98214.25;;;17.16;58.13
12182;BME280;6154;51.550;12.138;2023-03-14T00:28:38;98194.41;;;17.11;58.28
12182;BME280;6154;51.550;12.138;2023-03-14T00:31:11;98195.22;;;17.11;58.06
12182;BME280;6154;51.550;12.138;2023-03-14T00:33:41;98194.41;;;17.11;58.20
12182;BME280;6154;51.550;12.138;2023-03-14T00:36:12;98192.38;;;17.13;58.00
12182;BME280;6154;51.550;12.138;2023-03-14T00:38:41;98197.97;;;17.03;58.47
12182;BME280;6154;51.550;12.138;2023-03-14T00:41:12;98210.34;;;17.04;58.35
12182;BME280;6154;51.550;12.138;2023-03-14T00:43:41;98222.38;;;17.00;58.51
12182;BME280;6154;51.550;12.138;2023-03-14T00:46:09;98227.78;;;16.92;58.88
12182;BME280;6154;51.550;12.138;2023-03-14T00:48:38;98234.16;;;16.91;58.95
12182;BME280;6154;51.550;12.138;2023-03-14T00:51:08;98227.78;;;16.92;58.75
12182;BME280;6154;51.550;12.138;2023-03-14T00:53:38;98234.34;;;16.89;58.67
12182;BME280;6154;51.550;12.138;2023-03-14T00:56:09;98229.59;;;16.77;59.15
12182;BME280;6154;51.550;12.138;2023-03-14T00:58:38;98231.53;;;16.83;58.95
12182;BME280;6154;51.550;12.138;2023-03-14T01:01:07;98225.22;;;16.84;58.85
12182;BME280;6154;51.550;12.138;2023-03-14T01:03:35;98221.16;;;16.88;58.59
12182;BME280;6154;51.550;12.138;2023-03-14T01:06:09;98225.31;;;16.90;58.40
12182;BME280;6154;51.550;12.138;2023-03-14T01:08:37;98244.56;;;16.86;58.76
12182;BME280;6154;51.550;12.138;2023-03-14T01:11:07;98257.72;;;16.87;58.54
12182;BME280;6154;51.550;12.138;2023-03-14T01:13:36;98261.19;;;16.96;58.25
12182;BME280;6154;51.550;12.138;2023-03-14T01:16:06;98271.50;;;16.99;57.99
12182;BME280;6154;51.550;12.138;2023-03-14T01:18:37;98256.03;;;16.94;58.32
12182;BME280;6154;51.550;12.138;2023-03-14T01:21:11;98254.81;;;16.97;57.99
12182;BME280;6154;51.550;12.138;2023-03-14T01:23:40;98274.22;;;16.91;58.45
12182;BME280;6154;51.550;12.138;2023-03-14T01:26:09;98264.09;;;16.86;58.52
12182;BME280;6154;51.550;12.138;2023-03-14T01:28:38;98278.28;;;16.87;58.42
12182;BME280;6154;51.550;12.138;2023-03-14T01:31:09;98277.44;;;16.86;58.54
12182;BME280;6154;51.550;12.138;2023-03-14T01:33:38;98275.78;;;16.85;58.45
12182;BME280;6154;51.550;12.138;2023-03-14T01:36:09;98279.63;;;16.83;58.52
12182;BME280;6154;51.550;12.138;2023-03-14T01:38:40;98287.94;;;16.88;58.22
12182;BME280;6154;51.550;12.138;2023-03-14T01:41:13;98283.63;;;16.87;58.22
12182;BME280;6154;51.550;12.138;2023-03-14T01:43:42;98275.66;;;16.79;58.44
12182;BME280;6154;51.550;12.138;2023-03-14T01:46:36;98283.31;;;16.82;58.63
12182;BME280;6154;51.550;12.138;2023-03-14T01:49:11;98299.78;;;16.93;58.55
12182;BME280;6154;51.550;12.138;2023-03-14T01:51:45;98293.25;;;16.96;58.00
12182;BME280;6154;51.550;12.138;2023-03-14T01:54:19;98295.38;;;17.01;57.91
12182;BME280;6154;51.550;12.138;2023-03-14T01:56:52;98277.06;;;17.12;57.44
12182;BME280;6154;51.550;12.138;2023-03-14T01:59:21;98275.72;;;17.16;57.16
12182;BME280;6154;51.550;12.138;2023-03-14T02:01:50;98268.03;;;17.13;57.13
12182;BME280;6154;51.550;12.138;2023-03-14T02:04:20;98280.69;;;17.19;56.97
12182;BME280;6154;51.550;12.138;2023-03-14T02:06:55;98268.91;;;17.14;57.09
12182;BME280;6154;51.550;12.138;2023-03-14T02:09:27;98266.97;;;17.22;57.04
12182;BME280;6154;51.550;12.138;2023-03-14T02:11:55;98248.09;;;17.24;56.75
12182;BME280;6154;51.550;12.138;2023-03-14T02:14:30;98244.22;;;17.27;56.51
12182;BME280;6154;51.550;12.138;2023-03-14T02:17:01;98241.31;;;17.13;56.93
12182;BME280;6154;51.550;12.138;2023-03-14T02:20:06;98242.25;;;17.20;56.60
12182;BME280;6154;51.550;12.138;2023-03-14T02:22:38;98240.59;;;17.19;56.93
12182;BME280;6154;51.550;12.138;2023-03-14T02:25:12;98241.63;;;17.18;56.50
12182;BME280;6154;51.550;12.138;2023-03-14T02:27:44;98232.94;;;17.16;56.51
12182;BME280;6154;51.550;12.138;2023-03-14T02:30:14;98219.47;;;17.10;56.63
12182;BME280;6154;51.550;12.138;2023-03-14T02:32:45;98219.19;;;17.05;56.62
12182;BME280;6154;51.550;12.138;2023-03-14T02:35:17;98209.53;;;17.04;56.80
12182;BME280;6154;51.550;12.138;2023-03-14T02:37:50;98202.97;;;17.06;56.59
12182;BME280;6154;51.550;12.138;2023-03-14T02:40:20;98204.81;;;17.06;56.53
12182;BME280;6154;51.550;12.138;2023-03-14T02:42:51;98200.31;;;17.06;56.43
12182;BME280;6154;51.550;12.138;2023-03-14T02:45:46;98204.16;;;17.04;56.36
12182;BME280;6154;51.550;12.138;2023-03-14T02:48:18;98205.16;;;17.03;56.60
12182;BME280;6154;51.550;12.138;2023-03-14T02:50:48;98207.25;;;16.92;56.60
12182;BME280;6154;51.550;12.138;2023-03-14T02:53:20;98198.91;;;16.95;56.42
12182;BME280;6154;51.550;12.138;2023-03-14T02:55:49;98198.72;;;16.97;56.21
12182;BME280;6154;51.550;12.138;2023-03-14T02:58:20;98196.75;;;16.91;56.23
12182;BME280;6154;51.550;12.138;2023-03-14T03:00:49;98209.81;;;16.86;56.29
12182;BME280;6154;51.550;12.138;2023-03-14T03:03:17;98212.84;;;16.83;56.30
12182;BME280;6154;51.550;12.138;2023-03-14T03:05:48;98218.19;;;16.83;56.17
12182;BME280;6154;51.550;12.138;2023-03-14T03:08:17;98208.31;;;16.83;56.24
12182;BME280;6154;51.550;12.138;2023-03-14T03:10:46;98206.41;;;16.92;56.05
12182;BME280;6154;51.550;12.138;2023-03-14T03:13:15;98204.56;;;16.92;56.04
12182;BME280;6154;51.550;12.138;2023-03-14T03:15:46;98195.56;;;16.93;55.90
12182;BME280;6154;51.550;12.138;2023-03-14T03:18:14;98204.75;;;16.91;55.67
12182;BME280;6154;51.550;12.138;2023-03-14T03:20:43;98211.44;;;16.95;55.74
12182;BME280;6154;51.550;12.138;2023-03-14T03:23:11;98210.50;;;17.03;55.47
12182;BME280;6154;51.550;12.138;2023-03-14T03:25:39;98229.81;;;16.90;55.40
12182;BME280;6154;51.550;12.138;2023-03-14T03:28:07;98222.69;;;17.05;55.32
12182;BME280;6154;51.550;12.138;2023-03-14T03:30:39;98212.28;;;17.10;55.16
12182;BME280;6154;51.550;12.138;2023-03-14T03:33:11;98207.12;;;17.09;54.85
12182;BME280;6154;51.550;12.138;2023-03-14T03:35:43;98201.22;;;17.13;54.90
12182;BME280;6154;51.550;12.138;2023-03-14T03:38:12;98199.03;;;17.17;54.88
12182;BME280;6154;51.550;12.138;2023-03-14T03:40:42;98191.72;;;17.11;54.78
12182;BME280;6154;51.550;12.138;2023-03-14T03:43:10;98181.78;;;17.19;54.75
12182;BME280;6154;51.550;12.138;2023-03-14T03:45:39;98175.25;;;17.22;54.56
12182;BME280;6154;51.550;12.138;2023-03-14T03:48:07;98172.75;;;17.20;54.49
12182;BME280;6154;51.550;12.138;2023-03-14T03:50:37;98162.88;;;17.21;54.42
12182;BME280;6154;51.550;12.138;2023-03-14T03:53:05;98161.78;;;17.15;54.25
12182;BME280;6154;51.550;12.138;2023-03-14T03:55:33;98163.16;;;17.11;54.40
12182;BME280;6154;51.550;12.138;2023-03-14T03:58:01;98159.19;;;17.07;54.43
12182;BME280;6154;51.550;12.138;2023-03-14T04:00:29;98168.03;;;17.08;54.44
12182;BME280;6154;51.550;12.138;2023-03-14T04:02:59;98162.88;;;17.06;54.44
12182;BME280;6154;51.550;12.138;2023-03-14T04:05:27;98165.91;;;17.03;54.43
12182;BME280;6154;51.550;12.138;2023-03-14T04:07:57;98168.75;;;17.02;54.38
12182;BME280;6154;51.550;12.138;2023-03-14T04:10:26;98162.41;;;17.03;54.38
12182;BME280;6154;51.550;12.138;2023-03-14T04:12:55;98168.56;;;17.03;54.35
12182;BME280;6154;51.550;12.138;2023-03-14T04:15:23;98167.94;;;17.01;54.39
12182;BME280;6154;51.550;12.138;2023-03-14T04:17:56;98176.00;;;16.93;54.38
12182;BME280;6154;51.550;12.138;2023-03-14T04:20:24;98173.25;;;16.86;54.36
12182;BME280;6154;51.550;12.138;2023-03-14T04:22:57;98169.00;;;16.92;54.51
12182;BME280;6154;51.550;12.138;2023-03-14T04:25:26;98172.06;;;16.89;54.61
12182;BME280;6154;51.550;12.138;2023-03-14T04:27:54;98156.31;;;16.94;54.55
12182;BME280;6154;51.550;12.138;2023-03-14T04:30:23;98152.16;;;16.91;54.57
12182;BME280;6154;51.550;12.138;2023-03-14T04:32:51;98138.53;;;16.86;54.64
12182;BME280;6154;51.550;12.138;2023-03-14T04:35:20;98129.22;;;16.97;54.58
12182;BME280;6154;51.550;12.138;2023-03-14T04:37:48;98125.09;;;16.94;54.58
12182;BME280;6154;51.550;12.138;2023-03-14T04:40:20;98123.44;;;16.93;54.63
12182;BME280;6154;51.550;12.138;2023-03-14T04:42:49;98129.12;;;16.90;54.58
12182;BME280;6154;51.550;12.138;2023-03-14T04:45:18;98118.63;;;16.89;54.69
12182;BME280;6154;51.550;12.138;2023-03-14T04:47:48;98124.16;;;17.02;54.57
12182;BME280;6154;51.550;12.138;2023-03-14T04:50:17;98126.19;;;17.00;54.50
12182;BME280;6154;51.550;12.138;2023-03-14T04:52:46;98127.84;;;17.01;54.45
12182;BME280;6154;51.550;12.138;2023-03-14T04:55:14;98118.53;;;16.97;54.52
12182;BME280;6154;51.550;12.138;2023-03-14T04:57:44;98120.19;;;16.98;54.42
12182;BME280;6154;51.550;12.138;2023-03-14T05:00:13;98125.53;;;16.98;54.51
12182;BME280;6154;51.550;12.138;2023-03-14T05:02:45;98120.19;;;16.98;54.47
12182;BME280;6154;51.550;12.138;2023-03-14T05:05:13;98130.50;;;17.01;54.50
12182;BME280;6154;51.550;12.138;2023-03-14T05:07:42;98127.66;;;17.03;54.41
12182;BME280;6154;51.550;12.138;2023-03-14T05:10:10;98124.16;;;17.02;54.43
12182;BME280;6154;51.550;12.138;2023-03-14T05:12:39;98114.59;;;17.08;54.43
12182;BME280;6154;51.550;12.138;2023-03-14T05:15:09;98109.06;;;17.09;54.42
12182;BME280;6154;51.550;12.138;2023-03-14T05:17:38;98111.28;;;17.06;54.41
12182;BME280;6154;51.550;12.138;2023-03-14T05:20:08;98106.75;;;17.06;54.35
12182;BME280;6154;51.550;12.138;2023-03-14T05:22:42;98102.78;;;17.02;54.33
12182;BME280;6154;51.550;12.138;2023-03-14T05:25:11;98111.28;;;17.06;54.22
12182;BME280;6154;51.550;12.138;2023-03-14T05:27:39;98118.81;;;17.02;54.26
12182;BME280;6154;51.550;12.138;2023-03-14T05:30:13;98118.16;;;17.00;54.29
12182;BME280;6154;51.550;12.138;2023-03-14T05:32:44;98119.19;;;16.99;54.26
12182;BME280;6154;51.550;12.138;2023-03-14T05:35:13;98114.97;;;17.05;54.33
12182;BME280;6154;51.550;12.138;2023-03-14T05:37:41;98114.41;;;17.09;54.23
12182;BME280;6154;51.550;12.138;2023-03-14T05:40:10;98107.03;;;17.11;54.20
12182;BME280;6154;51.550;12.138;2023-03-14T05:42:39;98116.06;;;17.10;54.27
12182;BME280;6154;51.550;12.138;2023-03-14T05:45:07;98120.03;;;17.14;54.21
12182;BME280;6154;51.550;12.138;2023-03-14T05:47:37;98128.06;;;17.14;54.16
12182;BME280;6154;51.550;12.138;2023-03-14T05:50:09;98111.47;;;17.19;54.10
12182;BME280;6154;51.550;12.138;2023-03-14T05:52:37;98121.31;;;17.18;54.11
12182;BME280;6154;51.550;12.138;2023-03-14T05:55:06;98114.69;;;17.14;54.15
12182;BME280;6154;51.550;12.138;2023-03-14T05:57:34;98103.72;;;17.24;54.10
12182;BME280;6154;51.550;12.138;2023-03-14T06:00:04;98111.37;;;17.27;54.11
12182;BME280;6154;51.550;12.138;2023-03-14T06:02:39;98101.13;;;17.31;54.05
12182;BME280;6154;51.550;12.138;2023-03-14T06:05:08;98100.69;;;17.27;53.95
12182;BME280;6154;51.550;12.138;2023-03-14T06:07:36;98119.41;;;17.27;53.95
12182;BME280;6154;51.550;12.138;2023-03-14T06:10:05;98118.84;;;17.32;54.04
12182;BME280;6154;51.550;12.138;2023-03-14T06:12:36;98116.16;;;17.32;54.07
12182;BME280;6154;51.550;12.138;2023-03-14T06:15:05;98114.97;;;17.34;53.89
12182;BME280;6154;51.550;12.138;2023-03-14T06:17:34;98119.13;;;17.37;53.90
12182;BME280;6154;51.550;12.138;2023-03-14T06:20:04;98112.84;;;17.44;53.88
12182;BME280;6154;51.550;12.138;2023-03-14T06:22:32;98120.13;;;17.50;53.79
12182;BME280;6154;51.550;12.138;2023-03-14T06:25:01;98119.75;;;17.53;53.86
12182;BME280;6154;51.550;12.138;2023-03-14T06:27:31;98125.09;;;17.53;53.84
12182;BME280;6154;51.550;12.138;2023-03-14T06:29:59;98125.56;;;17.57;53.78
12182;BME280;6154;51.550;12.138;2023-03-14T06:32:28;98130.91;;;17.57;53.68
12182;BME280;6154;51.550;12.138;2023-03-14T06:34:57;98132.56;;;17.58;53.77
12182;BME280;6154;51.550;12.138;2023-03-14T06:37:29;98134.22;;;17.59;53.65
12182;BME280;6154;51.550;12.138;2023-03-14T06:39:58;98134.59;;;17.56;53.88
12182;BME280;6154;51.550;12.138;2023-03-14T06:42:26;98132.56;;;17.58;53.90
12182;BME280;6154;51.550;12.138;2023-03-14T06:44:54;98130.44;;;17.68;53.73
12182;BME280;6154;51.550;12.138;2023-03-14T06:47:24;98123.16;;;17.62;53.75
12182;BME280;6154;51.550;12.138;2023-03-14T06:49:52;98130.28;;;17.70;53.73
12182;BME280;6154;51.550;12.138;2023-03-14T06:52:21;98122.25;;;17.70;53.55
12182;BME280;6154;51.550;12.138;2023-03-14T06:54:51;98115.25;;;17.54;53.20
12182;BME280;6154;51.550;12.138;2023-03-14T06:57:19;98115.31;;;17.61;53.73
12182;BME280;6154;51.550;12.138;2023-03-14T06:59:47;98104.56;;;17.54;53.84
12182;BME280;6154;51.550;12.138;2023-03-14T07:02:16;98115.59;;;17.51;53.84
12182;BME280;6154;51.550;12.138;2023-03-14T07:04:44;98121.22;;;17.56;53.93
12182;BME280;6154;51.550;12.138;2023-03-14T07:07:15;98123.97;;;17.63;53.91
12182;BME280;6154;51.550;12.138;2023-03-14T07:09:43;98131.75;;;17.58;53.55
12182;BME280;6154;51.550;12.138;2023-03-14T07:12:13;98123.44;;;17.52;53.84
12182;BME280;6154;51.550;12.138;2023-03-14T07:14:41;98125.91;;;17.84;53.31
12182;BME280;6154;51.550;12.138;2023-03-14T07:17:09;98120.94;;;17.80;53.43
12182;BME280;6154;51.550;12.138;2023-03-14T07:19:37;98119.94;;;17.67;52.98
12182;BME280;6154;51.550;12.138;2023-03-14T07:22:07;98124.91;;;17.85;52.99
12182;BME280;6154;51.550;12.138;2023-03-14T07:24:35;98125.16;;;17.90;53.29
12182;BME280;6154;51.550;12.138;2023-03-14T07:27:04;98125.75;;;17.85;52.80
12182;BME280;6154;51.550;12.138;2023-03-14T07:29:37;98131.44;;;17.82;53.22
12182;BME280;6154;51.550;12.138;2023-03-14T07:32:07;98125.69;;;18.00;53.35
12182;BME280;6154;51.550;12.138;2023-03-14T07:34:37;98131.19;;;18.13;53.18
12182;BME280;6154;51.550;12.138;2023-03-14T07:37:05;98130.53;;;18.26;53.13
12182;BME280;6154;51.550;12.138;2023-03-14T07:39:33;98127.66;;;18.27;52.95
12182;BME280;6154;51.550;12.138;2023-03-14T07:42:03;98125.72;;;18.21;52.98
12182;BME280;6154;51.550;12.138;2023-03-14T07:44:31;98129.50;;;18.27;52.99
12182;BME280;6154;51.550;12.138;2023-03-14T07:47:00;98135.56;;;18.35;52.88
12182;BME280;6154;51.550;12.138;2023-03-14T07:49:29;98133.00;;;18.49;52.84
12182;BME280;6154;51.550;12.138;2023-03-14T07:51:57;98133.13;;;18.62;52.89
12182;BME280;6154;51.550;12.138;2023-03-14T07:54:25;98136.34;;;18.72;52.91
12182;BME280;6154;51.550;12.138;2023-03-14T07:56:54;98132.22;;;18.98;52.84
12182;BME280;6154;51.550;12.138;2023-03-14T07:59:22;98137.12;;;19.22;52.92
12182;BME280;6154;51.550;12.138;2023-03-14T08:01:50;98136.91;;;19.51;52.92
12182;BME280;6154;51.550;12.138;2023-03-14T08:04:19;98132.47;;;19.65;52.57
12182;BME280;6154;51.550;12.138;2023-03-14T08:06:49;98132.56;;;19.85;52.33
12182;BME280;6154;51.550;12.138;2023-03-14T08:09:18;98125.53;;;19.91;51.96
12182;BME280;6154;51.550;12.138;2023-03-14T08:11:46;98133.84;;;20.02;52.15
12182;BME280;6154;51.550;12.138;2023-03-14T08:14:14;98129.75;;;20.06;52.19
12182;BME280;6154;51.550;12.138;2023-03-14T08:16:42;98132.63;;;20.12;52.18
12182;BME280;6154;51.550;12.138;2023-03-14T08:19:10;98129.56;;;20.15;52.18
12182;BME280;6154;51.550;12.138;2023-03-14T08:21:39;98120.66;;;20.14;51.94
12182;BME280;6154;51.550;12.138;2023-03-14T08:24:08;98129.50;;;20.01;51.53
12182;BME280;6154;51.550;12.138;2023-03-14T08:26:36;98127.03;;;20.00;51.78
12182;BME280;6154;51.550;12.138;2023-03-14T08:29:04;98115.47;;;19.99;51.93
12182;BME280;6154;51.550;12.138;2023-03-14T08:31:34;98112.09;;;19.84;51.85
12182;BME280;6154;51.550;12.138;2023-03-14T08:34:02;98126.94;;;19.80;51.86
12182;BME280;6154;51.550;12.138;2023-03-14T08:36:31;98114.31;;;19.74;51.55
12182;BME280;6154;51.550;12.138;2023-03-14T08:39:01;98118.84;;;19.67;51.91
12182;BME280;6154;51.550;12.138;2023-03-14T08:41:30;98113.56;;;19.52;51.22
12182;BME280;6154;51.550;12.138;2023-03-14T08:43:59;98108.41;;;19.50;51.76
12182;BME280;6154;51.550;12.138;2023-03-14T08:46:27;98100.09;;;19.39;51.57
12182;BME280;6154;51.550;12.138;2023-03-14T08:48:55;98098.66;;;19.43;51.89
12182;BME280;6154;51.550;12.138;2023-03-14T08:51:23;98105.16;;;18.92;51.60
12182;BME280;6154;51.550;12.138;2023-03-14T08:53:51;98103.66;;;19.11;52.02
12182;BME280;6154;51.550;12.138;2023-03-14T08:56:20;98101.25;;;19.23;51.34
12182;BME280;6154;51.550;12.138;2023-03-14T08:58:52;98100.25;;;19.24;51.09
12182;BME280;6154;51.550;12.138;2023-03-14T09:01:20;98101.25;;;19.23;51.40
12182;BME280;6154;51.550;12.138;2023-03-14T09:03:51;98106.59;;;18.88;49.55
12182;BME280;6154;51.550;12.138;2023-03-14T09:06:19;98099.22;;;18.97;50.10
12182;BME280;6154;51.550;12.138;2023-03-14T09:08:47;98100.19;;;19.17;50.84
12182;BME280;6154;51.550;12.138;2023-03-14T09:11:15;98103.75;;;19.31;50.77
12182;BME280;6154;51.550;12.138;2023-03-14T09:13:47;98088.25;;;18.92;49.98
12182;BME280;6154;51.550;12.138;2023-03-14T09:16:15;98105.97;;;19.21;51.21
12182;BME280;6154;51.550;12.138;2023-03-14T09:18:44;98109.59;;;19.35;51.42
12182;BME280;6154;51.550;12.138;2023-03-14T09:21:12;98106.91;;;19.41;50.76
12182;BME280;6154;51.550;12.138;2023-03-14T09:23:40;98103.41;;;19.34;49.67
12182;BME280;6154;51.550;12.138;2023-03-14T09:26:08;98101.09;;;19.66;50.74
12182;BME280;6154;51.550;12.138;2023-03-14T09:28:36;98098.62;;;19.64;50.62
12182;BME280;6154;51.550;12.138;2023-03-14T09:31:10;98109.53;;;19.63;50.34
12182;BME280;6154;51.550;12.138;2023-03-14T09:33:38;98111.09;;;19.92;49.96
12182;BME280;6154;51.550;12.138;2023-03-14T09:36:07;98111.84;;;19.66;51.13
12182;BME280;6154;51.550;12.138;2023-03-14T09:38:35;98108.00;;;19.88;50.31
12182;BME280;6154;51.550;12.138;2023-03-14T09:41:13;98115.19;;;19.81;50.08
12182;BME280;6154;51.550;12.138;2023-03-14T09:43:43;98108.19;;;19.87;49.01
12182;BME280;6154;51.550;12.138;2023-03-14T09:46:15;98120.34;;;19.41;48.88
12182;BME280;6154;51.550;12.138;2023-03-14T09:48:43;98117.38;;;19.30;50.22
12182;BME280;6154;51.550;12.138;2023-03-14T09:51:15;98103.13;;;19.57;50.15
12182;BME280;6154;51.550;12.138;2023-03-14T09:53:46;98112.91;;;19.43;49.37
12182;BME280;6154;51.550;12.138;2023-03-14T09:56:18;98114.72;;;19.64;50.19
12182;BME280;6154;51.550;12.138;2023-03-14T09:58:50;98116.41;;;19.44;49.68
12182;BME280;6154;51.550;12.138;2023-03-14T10:01:24;98120.22;;;18.93;48.87
12182;BME280;6154;51.550;12.138;2023-03-14T10:03:54;98119.50;;;19.34;49.68
12182;BME280;6154;51.550;12.138;2023-03-14T10:06:26;98131.66;;;19.37;49.90
12182;BME280;6154;51.550;12.138;2023-03-14T10:08:55;98130.62;;;19.38;49.90
12182;BME280;6154;51.550;12.138;2023-03-14T10:11:24;98135.47;;;19.21;50.45
12182;BME280;6154;51.550;12.138;2023-03-14T10:14:05;98136.41;;;19.35;50.59
12182;BME280;6154;51.550;12.138;2023-03-14T10:16:37;98126.59;;;19.20;48.55
12182;BME280;6154;51.550;12.138;2023-03-14T10:19:10;98121.13;;;19.70;50.28
12182;BME280;6154;51.550;12.138;2023-03-14T10:21:40;98120.53;;;19.74;50.71
12182;BME280;6154;51.550;12.138;2023-03-14T10:24:18;98118.87;;;19.73;48.84
12182;BME280;6154;51.550;12.138;2023-03-14T10:26:48;98117.34;;;20.05;48.81
12182;BME280;6154;51.550;12.138;2023-03-14T10:29:17;98112.75;;;19.93;49.15
12182;BME280;6154;51.550;12.138;2023-03-14T10:31:50;98116.75;;;20.23;49.80
12182;BME280;6154;51.550;12.138;2023-03-14T10:34:24;98117.38;;;20.19;48.84
12182;BME280;6154;51.550;12.138;2023-03-14T10:36:54;98107.75;;;20.57;49.98
12182;BME280;6154;51.550;12.138;2023-03-14T10:39:29;98120.59;;;20.69;50.16
12182;BME280;6154;51.550;12.138;2023-03-14T10:42:05;98114.16;;;20.63;48.31
12182;BME280;6154;51.550;12.138;2023-03-14T10:44:39;98120.56;;;20.62;47.60
12182;BME280;6154;51.550;12.138;2023-03-14T10:47:17;98129.47;;;20.82;49.15
12182;BME280;6154;51.550;12.138;2023-03-14T10:49:46;98127.00;;;20.81;47.83
12182;BME280;6154;51.550;12.138;2023-03-14T10:52:20;98127.84;;;20.94;49.82
12182;BME280;6154;51.550;12.138;2023-03-14T10:55:03;98132.19;;;20.76;48.89
12182;BME280;6154;51.550;12.138;2023-03-14T10:57:38;98128.63;;;20.62;49.62
12182;BME280;6154;51.550;12.138;2023-03-14T11:00:14;98131.69;;;20.39;50.00
12182;BME280;6154;51.550;12.138;2023-03-14T11:02:58;98127.72;;;20.15;48.01
12182;BME280;6154;51.550;12.138;2023-03-14T11:05:32;98125.16;;;20.00;48.17
12182;BME280;6154;51.550;12.138;2023-03-14T11:08:07;98121.47;;;20.08;49.93
12182;BME280;6154;51.550;12.138;2023-03-14T11:10:37;98110.13;;;20.13;50.30
12182;BME280;6154;51.550;12.138;2023-03-14T11:13:16;98115.34;;;20.27;50.07
12182;BME280;6154;51.550;12.138;2023-03-14T11:15:53;98120.50;;;20.42;49.35
12182;BME280;6154;51.550;12.138;2023-03-14T11:21:35;98111.69;;;20.68;48.21
12182;BME280;6154;51.550;12.138;2023-03-14T11:24:18;98111.28;;;20.64;47.90
12182;BME280;6154;51.550;12.138;2023-03-14T11:26:52;98113.78;;;20.86;48.11
12182;BME280;6154;51.550;12.138;2023-03-14T11:29:29;98107.53;;;21.12;49.69
12182;BME280;6154;51.550;12.138;2023-03-14T11:32:12;98113.72;;;21.26;48.31
12182;BME280;6154;51.550;12.138;2023-03-14T11:34:45;98122.41;;;21.14;47.18
12182;BME280;6154;51.550;12.138;2023-03-14T11:37:23;98119.94;;;21.19;47.77
12182;BME280;6154;51.550;12.138;2023-03-14T11:39:59;98121.78;;;21.26;47.87
12182;BME280;6154;51.550;12.138;2023-03-14T11:42:31;98119.50;;;21.22;48.08
12182;BME280;6154;51.550;12.138;2023-03-14T11:45:00;98117.28;;;20.66;48.12
12182;BME280;6154;51.550;12.138;2023-03-14T11:47:33;98116.84;;;20.83;49.80
12182;BME280;6154;51.550;12.138;2023-03-14T11:50:12;98122.84;;;20.98;49.28
12182;BME280;6154;51.550;12.138;2023-03-14T11:52:47;98131.94;;;20.84;47.50
12182;BME280;6154;51.550;12.138;2023-03-14T11:55:21;98124.28;;;21.01;48.73
12182;BME280;6154;51.550;12.138;2023-03-14T11:57:56;98119.34;;;20.45;47.97
12182;BME280;6154;51.550;12.138;2023-03-14T12:00:26;98113.75;;;20.59;47.99
12182;BME280;6154;51.550;12.138;2023-03-14T12:02:59;98114.16;;;21.29;49.67
12182;BME280;6154;51.550;12.138;2023-03-14T12:05:38;98113.91;;;21.44;49.23
12182;BME280;6154;51.550;12.138;2023-03-14T12:08:39;98106.97;;;21.74;48.57
12182;BME280;6154;51.550;12.138;2023-03-14T12:11:14;98104.47;;;21.73;46.75
12182;BME280;6154;51.550;12.138;2023-03-14T12:13:47;98098.72;;;21.63;47.26
12182;BME280;6154;51.550;12.138;2023-03-14T12:16:33;98089.22;;;21.60;48.40
12182;BME280;6154;51.550;12.138;2023-03-14T12:19:28;98084.72;;;21.47;46.44
12182;BME280;6154;51.550;12.138;2023-03-14T12:22:08;98079.28;;;21.54;46.47
12182;BME280;6154;51.550;12.138;2023-03-14T12:24:47;98079.56;;;21.91;47.72
12182;BME280;6154;51.550;12.138;2023-03-14T12:27:39;98088.97;;;22.20;47.19
12182;BME280;6154;51.550;12.138;2023-03-14T12:30:16;98078.66;;;22.42;46.17
12182;BME280;6154;51.550;12.138;2023-03-14T12:33:12;98085.38;;;22.82;46.89
12182;BME280;6154;51.550;12.138;2023-03-14T12:35:41;98082.09;;;22.80;45.57
12182;BME280;6154;51.550;12.138;2023-03-14T12:38:13;98079.00;;;23.02;47.95
12182;BME280;6154;51.550;12.138;2023-03-14T12:40:50;98093.44;;;22.32;45.68
12182;BME280;6154;51.550;12.138;2023-03-14T12:43:26;98082.69;;;22.57;46.51
12182;BME280;6154;51.550;12.138;2023-03-14T12:49:03;98089.97;;;22.57;44.48
12182;BME280;6154;51.550;12.138;2023-03-14T12:51:35;98075.22;;;22.84;47.10
12182;BME280;6154;51.550;12.138;2023-03-14T12:54:19;98074.66;;;22.51;46.91
12182;BME280;6154;51.550;12.138;2023-03-14T12:56:59;98078.09;;;22.33;45.38
12182;BME280;6154;51.550;12.138;2023-03-14T12:59:34;98067.72;;;21.92;45.37
12182;BME280;6154;51.550;12.138;2023-03-14T13:02:20;98055.69;;;22.32;46.91
12182;BME280;6154;51.550;12.138;2023-03-14T13:04:52;98055.00;;;22.12;45.65
12182;BME280;6154;51.550;12.138;2023-03-14T13:07:34;98063.53;;;22.09;47.30
12182;BME280;6154;51.550;12.138;2023-03-14T13:10:22;98054.38;;;22.17;45.03
12182;BME280;6154;51.550;12.138;2023-03-14T13:12:53;98044.78;;;22.21;45.08
12182;BME280;6154;51.550;12.138;2023-03-14T13:15:27;98044.06;;;22.38;47.87
12182;BME280;6154;51.550;12.138;2023-03-14T13:18:01;98041.81;;;22.35;46.51
12182;BME280;6154;51.550;12.138;2023-03-14T13:20:32;98044.50;;;22.35;47.26
12182;BME280;6154;51.550;12.138;2023-03-14T13:23:02;98045.06;;;22.13;46.88
12182;BME280;6154;51.550;12.138;2023-03-14T13:25:35;98042.19;;;22.01;47.41
12182;BME280;6154;51.550;12.138;2023-03-14T13:28:03;98051.81;;;21.84;46.63